createdAt,value
2023-03-26T00:02:05.426Z,7.60
2023-03-26T00:04:34.658Z,9.40
2023-03-26T00:07:03.256Z,8.70
2023-03-26T00:09:31.488Z,8.70
2023-03-26T00:11:59.590Z,8.00
2023-03-26T00:14:29.402Z,8.70
2023-03-26T00:16:57.602Z,7.90
2023-03-26T00:19:25.588Z,8.80
2023-03-26T00:21:53.614Z,6.40
2023-03-26T00:24:21.808Z,7.20
2023-03-26T00:26:53.647Z,8.30
2023-03-26T00:29:28.139Z,7.80
2023-03-26T00:31:57.212Z,8.20
2023-03-26T00:34:26.990Z,6.80
2023-03-26T00:36:55.070Z,7.60
2023-03-26T00:39:25.892Z,8.10
2023-03-26T00:41:54.794Z,7.20
2023-03-26T00:44:23.584Z,7.60
2023-03-26T00:46:51.747Z,6.30
2023-03-26T00:49:20.129Z,8.40
2023-03-26T00:51:48.200Z,7.10
2023-03-26T00:54:16.777Z,6.70
2023-03-26T00:56:45.605Z,5.40
2023-03-26T00:59:13.763Z,8.10
2023-03-26T01:01:41.895Z,8.60
2023-03-26T01:04:32.180Z,6.50
2023-03-26T01:07:22.814Z,8.00
2023-03-26T01:09:51.693Z,9.10
2023-03-26T01:12:22.576Z,8.50
2023-03-26T01:14:52.866Z,11.30
2023-03-26T01:17:22.267Z,9.30
2023-03-26T01:19:58.830Z,7.60
2023-03-26T01:22:27.941Z,7.50
2023-03-26T01:24:58.654Z,8.00
2023-03-26T01:27:44.884Z,7.30
2023-03-26T01:30:33.852Z,8.70
2023-03-26T01:33:26.499Z,7.60
2023-03-26T01:36:19.441Z,8.20
2023-03-26T01:39:00.663Z,8.10
2023-03-26T01:41:49.091Z,7.50
2023-03-26T01:44:24.729Z,7.80
2023-03-26T01:46:53.875Z,8.20
2023-03-26T01:49:21.950Z,8.50
2023-03-26T01:51:51.577Z,6.20
2023-03-26T01:54:22.647Z,7.40
2023-03-26T01:56:58.067Z,10.30
2023-03-26T01:59:44.461Z,8.50
2023-03-26T02:02:42.718Z,8.70
2023-03-26T02:05:14.014Z,9.20
2023-03-26T02:07:41.943Z,8.50
2023-03-26T02:10:21.236Z,8.00
2023-03-26T02:12:50.979Z,7.20
2023-03-26T02:15:19.093Z,7.90
2023-03-26T02:17:47.287Z,8.80
2023-03-26T02:20:18.993Z,10.00
2023-03-26T02:22:47.993Z,7.70
2023-03-26T02:25:20.443Z,9.20
2023-03-26T02:27:51.612Z,7.10
2023-03-26T02:30:25.941Z,7.70
2023-03-26T02:32:59.423Z,7.90
2023-03-26T02:35:32.580Z,10.20
2023-03-26T02:38:02.219Z,6.80
2023-03-26T02:40:30.282Z,7.60
2023-03-26T02:42:59.085Z,6.60
2023-03-26T02:45:28.535Z,8.10
2023-03-26T02:48:08.518Z,9.20
2023-03-26T02:50:54.655Z,7.60
2023-03-26T02:53:53.869Z,6.20
2023-03-26T02:56:41.165Z,8.20
2023-03-26T02:59:22.414Z,6.80
2023-03-26T03:02:00.544Z,9.90
2023-03-26T03:04:28.539Z,7.80
2023-03-26T03:06:57.918Z,7.20
2023-03-26T03:09:26.470Z,7.00
2023-03-26T03:12:26.413Z,8.20
2023-03-26T03:14:54.459Z,7.00
2023-03-26T03:17:22.435Z,6.40
2023-03-26T03:19:50.505Z,8.10
2023-03-26T03:22:20.312Z,4.80
2023-03-26T03:24:48.898Z,4.50
2023-03-26T03:27:18.409Z,4.40
2023-03-26T03:29:56.202Z,6.10
2023-03-26T03:32:44.498Z,5.80
2023-03-26T03:35:12.951Z,5.90
2023-03-26T03:37:42.541Z,5.10
2023-03-26T03:40:11.377Z,4.90
2023-03-26T03:42:39.599Z,4.80
2023-03-26T03:45:08.596Z,4.70
2023-03-26T03:47:53.393Z,5.30
2023-03-26T03:50:27.772Z,9.10
2023-03-26T03:53:07.727Z,6.60
2023-03-26T03:55:38.461Z,5.70
2023-03-26T03:58:09.298Z,4.90
2023-03-26T04:00:38.594Z,5.10
2023-03-26T04:03:33.407Z,4.80
2023-03-26T04:06:07.093Z,5.70
2023-03-26T04:08:35.883Z,4.40
2023-03-26T04:11:06.031Z,5.30
2023-03-26T04:13:54.344Z,6.00
2023-03-26T04:16:30.866Z,5.60
2023-03-26T04:19:02.495Z,8.40
2023-03-26T04:21:30.767Z,5.70
2023-03-26T04:23:58.859Z,6.00
2023-03-26T04:27:12.878Z,5.90
2023-03-26T04:29:46.911Z,6.20
2023-03-26T04:32:30.351Z,7.90
2023-03-26T04:35:00.461Z,6.60
2023-03-26T04:37:41.007Z,8.30
2023-03-26T04:40:19.564Z,7.20
2023-03-26T04:43:18.297Z,5.80
2023-03-26T04:45:53.551Z,8.10
2023-03-26T04:48:23.047Z,6.20
2023-03-26T04:50:51.322Z,6.40
2023-03-26T04:53:21.738Z,5.80
2023-03-26T04:56:45.663Z,5.60
2023-03-26T04:59:52.296Z,5.10
2023-03-26T05:02:20.775Z,6.40
2023-03-26T05:04:57.323Z,6.20
2023-03-26T05:07:27.987Z,7.10
2023-03-26T05:09:57.762Z,6.40
2023-03-26T05:12:36.202Z,6.40
2023-03-26T05:15:09.337Z,6.30
2023-03-26T05:17:46.700Z,5.60
2023-03-26T05:20:24.897Z,5.90
2023-03-26T05:22:53.896Z,6.60
2023-03-26T05:25:28.659Z,6.40
2023-03-26T05:27:57.400Z,5.80
2023-03-26T05:30:28.621Z,6.30
2023-03-26T05:32:59.883Z,7.40
2023-03-26T05:35:32.078Z,4.90
2023-03-26T05:38:00.112Z,5.90
2023-03-26T05:40:28.827Z,5.20
2023-03-26T05:43:02.003Z,4.40
2023-03-26T05:45:39.346Z,5.00
2023-03-26T05:48:19.648Z,4.90
2023-03-26T05:50:52.911Z,6.60
2023-03-26T05:53:22.961Z,4.70
2023-03-26T05:56:10.176Z,6.20
2023-03-26T05:58:42.451Z,6.20
2023-03-26T06:01:29.669Z,4.50
2023-03-26T06:04:17.692Z,5.00
2023-03-26T06:06:57.998Z,4.40
2023-03-26T06:09:26.833Z,7.80
2023-03-26T06:11:55.046Z,5.10
2023-03-26T06:14:23.517Z,4.00
2023-03-26T06:17:14.312Z,5.00
2023-03-26T06:20:01.258Z,7.20
2023-03-26T06:22:37.896Z,6.20
2023-03-26T06:25:17.646Z,4.00
2023-03-26T06:28:01.404Z,4.00
2023-03-26T06:30:55.191Z,6.70
2023-03-26T06:33:43.937Z,3.60
2023-03-26T06:36:13.795Z,3.90
2023-03-26T06:38:42.166Z,3.00
2023-03-26T06:41:10.834Z,3.60
2023-03-26T06:43:59.995Z,4.70
2023-03-26T06:46:38.030Z,3.00
2023-03-26T06:49:31.939Z,3.80
2023-03-26T06:52:17.526Z,3.10
2023-03-26T06:54:48.352Z,4.60
2023-03-26T06:57:37.733Z,4.10
2023-03-26T07:00:34.688Z,3.60
2023-03-26T07:03:24.250Z,3.00
2023-03-26T07:06:11.189Z,3.70
2023-03-26T07:08:59.303Z,2.40
2023-03-26T07:11:27.476Z,2.90
2023-03-26T07:14:14.389Z,3.40
2023-03-26T07:17:00.108Z,3.90
2023-03-26T07:19:52.889Z,2.70
2023-03-26T07:22:25.789Z,4.10
2023-03-26T07:25:07.218Z,3.00
2023-03-26T07:28:29.415Z,2.60
2023-03-26T07:31:42.780Z,3.60
2023-03-26T07:35:15.958Z,2.70
2023-03-26T07:38:02.671Z,3.10
2023-03-26T07:41:26.965Z,3.10
2023-03-26T07:44:37.217Z,3.60
2023-03-26T07:47:36.149Z,3.40
2023-03-26T07:50:36.966Z,3.30
2023-03-26T07:53:23.876Z,2.90
2023-03-26T07:56:14.656Z,4.60
2023-03-26T07:59:21.344Z,3.50
2023-03-26T08:02:20.460Z,3.50
2023-03-26T08:08:14.090Z,3.20
2023-03-26T08:10:52.231Z,3.30
2023-03-26T08:13:28.058Z,2.70
2023-03-26T08:16:23.613Z,3.50
2023-03-26T08:19:42.580Z,3.40
2023-03-26T08:22:27.550Z,3.20
2023-03-26T08:25:12.059Z,4.10
2023-03-26T08:27:43.441Z,3.30
2023-03-26T08:30:21.081Z,3.00
2023-03-26T08:33:00.828Z,4.40
2023-03-26T08:35:28.886Z,3.90
2023-03-26T08:37:56.849Z,4.20
2023-03-26T08:40:54.006Z,3.50
2023-03-26T08:43:46.520Z,2.80
2023-03-26T08:46:15.562Z,3.00
2023-03-26T08:48:51.879Z,2.70
2023-03-26T08:51:52.309Z,3.00
2023-03-26T08:54:37.479Z,2.60
2023-03-26T08:57:37.190Z,2.80
2023-03-26T09:00:15.921Z,2.90
2023-03-26T09:03:28.893Z,3.70
2023-03-26T09:06:15.638Z,2.50
2023-03-26T09:11:40.977Z,1.80
2023-03-26T09:14:21.265Z,3.00
2023-03-26T09:17:12.858Z,2.70
2023-03-26T09:19:56.286Z,2.60
2023-03-26T09:22:39.819Z,4.40
2023-03-26T09:25:27.816Z,3.30
2023-03-26T09:28:44.052Z,2.30
2023-03-26T09:31:35.327Z,3.60
2023-03-26T09:34:32.266Z,2.20
2023-03-26T09:37:06.002Z,2.40
2023-03-26T09:39:44.946Z,3.90
2023-03-26T09:42:46.210Z,2.40
2023-03-26T09:45:53.261Z,1.70
2023-03-26T09:48:46.140Z,2.70
2023-03-26T09:51:33.468Z,1.40
2023-03-26T09:54:25.777Z,3.30
2023-03-26T09:57:06.326Z,1.70
2023-03-26T09:59:45.694Z,1.70
2023-03-26T10:02:22.764Z,2.00
2023-03-26T10:05:27.302Z,2.90
2023-03-26T10:08:25.282Z,2.20
2023-03-26T10:11:27.956Z,1.70
2023-03-26T10:14:39.454Z,3.00
2023-03-26T10:17:25.812Z,2.50
2023-03-26T10:20:17.979Z,2.00
2023-03-26T10:23:24.665Z,2.60
2023-03-26T10:26:13.117Z,2.00
2023-03-26T10:28:56.983Z,3.10
2023-03-26T10:31:47.575Z,1.90
2023-03-26T10:34:34.286Z,3.50
2023-03-26T10:37:46.147Z,2.50
2023-03-26T10:40:25.258Z,1.80
2023-03-26T10:43:57.697Z,1.70
2023-03-26T10:46:35.765Z,2.10
2023-03-26T10:51:48.897Z,1.80
2023-03-26T10:54:42.833Z,2.20
2023-03-26T10:57:41.387Z,1.10
2023-03-26T11:00:25.763Z,1.70
2023-03-26T11:03:26.258Z,1.80
2023-03-26T11:06:23.727Z,2.20
2023-03-26T11:09:02.639Z,1.90
2023-03-26T11:11:55.010Z,2.20
2023-03-26T11:15:04.548Z,2.50
2023-03-26T11:18:00.898Z,1.50
2023-03-26T11:21:19.146Z,1.60
2023-03-26T11:24:05.050Z,1.30
2023-03-26T11:27:14.853Z,1.90
2023-03-26T11:30:14.263Z,1.30
2023-03-26T11:32:50.562Z,3.30
2023-03-26T11:35:39.731Z,2.40
2023-03-26T11:38:40.521Z,2.90
2023-03-26T11:41:25.527Z,1.40
2023-03-26T11:44:14.365Z,2.30
2023-03-26T11:46:45.933Z,2.10
2023-03-26T11:49:18.685Z,2.20
2023-03-26T11:51:48.792Z,1.70
2023-03-26T11:54:18.018Z,2.10
2023-03-26T11:57:05.266Z,1.50
2023-03-26T11:59:56.593Z,2.10
2023-03-26T12:02:35.714Z,1.20
2023-03-26T12:05:14.910Z,1.40
2023-03-26T12:07:57.045Z,2.20
2023-03-26T12:10:27.128Z,1.70
2023-03-26T12:12:59.121Z,1.60
2023-03-26T12:15:28.386Z,1.60
2023-03-26T12:17:58.868Z,1.70
2023-03-26T12:20:29.844Z,1.40
2023-03-26T12:23:03.333Z,1.70
2023-03-26T12:25:39.173Z,2.50
2023-03-26T12:28:13.331Z,1.30
2023-03-26T12:30:53.063Z,2.00
2023-03-26T12:33:34.797Z,1.70
2023-03-26T12:36:27.106Z,1.90
2023-03-26T12:39:16.364Z,2.70
2023-03-26T12:44:42.801Z,2.60
2023-03-26T12:44:56.402Z,2.40
2023-03-26T12:48:00.250Z,1.20
2023-03-26T12:50:34.117Z,1.00
2023-03-26T12:53:03.029Z,1.40
2023-03-26T12:56:12.653Z,1.20
2023-03-26T12:59:08.170Z,0.90
2023-03-26T13:01:45.402Z,1.50
2023-03-26T13:04:22.457Z,1.30
2023-03-26T13:07:00.871Z,1.60
2023-03-26T13:09:55.393Z,1.00
2023-03-26T13:12:41.177Z,3.30
2023-03-26T13:15:18.341Z,1.20
2023-03-26T13:18:16.345Z,1.10
2023-03-26T13:20:59.855Z,1.00
2023-03-26T13:24:05.498Z,1.10
2023-03-26T13:30:00.779Z,0.90
2023-03-26T13:32:58.853Z,2.70
2023-03-26T13:35:34.126Z,2.80
2023-03-26T13:38:05.116Z,4.80
2023-03-26T13:40:57.898Z,2.20
2023-03-26T13:43:35.826Z,2.20
2023-03-26T13:46:55.969Z,2.30
2023-03-26T13:49:37.524Z,1.70
2023-03-26T13:52:47.467Z,0.90
2023-03-26T13:55:36.164Z,1.20
2023-03-26T13:58:23.135Z,0.90
2023-03-26T14:00:55.295Z,2.10
2023-03-26T14:03:31.912Z,1.70
2023-03-26T14:06:24.245Z,1.00
2023-03-26T14:08:59.574Z,1.90
2023-03-26T14:12:21.079Z,1.20
2023-03-26T14:15:42.613Z,2.00
2023-03-26T14:18:22.863Z,1.90
2023-03-26T14:21:29.009Z,0.80
2023-03-26T14:24:34.564Z,2.10
2023-03-26T14:27:34.377Z,1.10
2023-03-26T14:30:23.590Z,1.20
2023-03-26T14:33:27.305Z,1.90
2023-03-26T14:36:13.747Z,2.10
2023-03-26T14:39:12.759Z,3.60
2023-03-26T14:41:51.584Z,1.80
2023-03-26T14:44:25.783Z,1.60
2023-03-26T14:47:27.131Z,1.80
2023-03-26T14:50:35.999Z,2.00
2023-03-26T14:53:22.980Z,1.90
2023-03-26T14:55:54.224Z,2.40
2023-03-26T14:58:50.572Z,1.70
2023-03-26T15:01:45.205Z,3.10
2023-03-26T15:04:46.196Z,2.10
2023-03-26T15:07:36.699Z,2.00
2023-03-26T15:10:05.816Z,2.80
2023-03-26T15:12:51.171Z,1.50
2023-03-26T15:16:14.607Z,1.70
2023-03-26T15:19:09.025Z,18.50
2023-03-26T15:22:01.935Z,14.50
2023-03-26T15:24:55.032Z,5.10
2023-03-26T15:28:09.628Z,5.90
2023-03-26T15:31:10.097Z,3.60
2023-03-26T15:33:57.365Z,4.50
2023-03-26T15:36:47.024Z,2.60
2023-03-26T15:39:28.000Z,2.40
2023-03-26T15:42:15.627Z,3.00
2023-03-26T15:45:22.601Z,2.20
2023-03-26T15:47:56.804Z,1.60
2023-03-26T15:50:38.203Z,3.40
2023-03-26T15:53:29.331Z,1.80
2023-03-26T15:56:35.814Z,2.20
2023-03-26T15:59:23.323Z,2.40
2023-03-26T16:02:35.070Z,3.10
2023-03-26T16:05:22.483Z,4.10
2023-03-26T16:08:19.079Z,2.90
2023-03-26T16:10:49.910Z,2.70
2023-03-26T16:13:20.851Z,1.80
2023-03-26T16:15:58.299Z,1.80
2023-03-26T16:18:35.997Z,3.90
2023-03-26T16:21:06.966Z,4.40
2023-03-26T16:23:47.311Z,3.00
2023-03-26T16:26:36.542Z,9.00
2023-03-26T16:29:25.883Z,6.70
2023-03-26T16:32:08.080Z,3.70
2023-03-26T16:34:53.245Z,8.00
2023-03-26T16:37:36.841Z,5.20
2023-03-26T16:40:26.454Z,4.30
2023-03-26T16:43:22.801Z,5.90
2023-03-26T16:48:31.630Z,4.40
2023-03-26T16:51:14.880Z,6.40
2023-03-26T16:53:54.058Z,6.90
2023-03-26T16:57:14.113Z,5.00
2023-03-26T17:02:42.033Z,4.00
2023-03-26T17:05:44.398Z,7.10
2023-03-26T17:08:35.391Z,6.10
2023-03-26T17:11:07.514Z,6.80
2023-03-26T17:13:56.284Z,8.30
2023-03-26T17:16:30.709Z,4.50
2023-03-26T17:19:25.899Z,4.80
2023-03-26T17:22:11.644Z,4.30
2023-03-26T17:24:49.075Z,4.60
2023-03-26T17:31:03.618Z,4.50
2023-03-26T17:33:34.995Z,4.00
2023-03-26T17:36:12.613Z,4.60
2023-03-26T17:38:45.503Z,3.00
2023-03-26T17:41:35.401Z,4.50
2023-03-26T17:44:43.754Z,3.20
2023-03-26T17:47:35.926Z,6.80
2023-03-26T17:50:30.013Z,3.30
2023-03-26T17:53:03.511Z,5.00
2023-03-26T17:55:35.723Z,3.70
2023-03-26T17:58:06.939Z,4.90
2023-03-26T18:00:47.342Z,4.10
2023-03-26T18:03:24.505Z,10.80
2023-03-26T18:05:57.682Z,8.80
2023-03-26T18:08:32.586Z,10.80
2023-03-26T18:11:28.338Z,10.50
2023-03-26T18:14:18.585Z,6.60
2023-03-26T18:17:01.713Z,11.80
2023-03-26T18:19:31.975Z,19.10
2023-03-26T18:22:05.477Z,14.90
2023-03-26T18:24:38.414Z,15.10
2023-03-26T18:27:12.404Z,21.60
2023-03-26T18:30:14.718Z,43.90
2023-03-26T18:33:05.264Z,32.40
2023-03-26T18:35:50.086Z,20.10
2023-03-26T18:38:35.659Z,9.60
2023-03-26T18:41:15.486Z,9.00
2023-03-26T18:43:44.825Z,9.40
2023-03-26T18:46:14.975Z,20.50
2023-03-26T18:48:44.328Z,20.00
2023-03-26T18:51:12.818Z,15.00
2023-03-26T18:53:55.961Z,21.80
2023-03-26T18:56:24.092Z,30.30
2023-03-26T18:58:53.084Z,37.90
2023-03-26T19:01:25.699Z,43.20
2023-03-26T19:03:55.595Z,40.70
2023-03-26T19:06:26.221Z,33.20
2023-03-26T19:08:55.193Z,22.80
2023-03-26T19:11:25.634Z,19.80
2023-03-26T19:14:07.036Z,28.60
2023-03-26T19:16:37.265Z,35.10
2023-03-26T19:19:07.868Z,45.20
2023-03-26T19:21:37.154Z,48.10
2023-03-26T19:24:05.974Z,45.00
2023-03-26T19:26:36.597Z,42.40
2023-03-26T19:29:05.711Z,51.00
2023-03-26T19:31:39.195Z,48.20
2023-03-26T19:34:17.954Z,44.80
2023-03-26T19:37:01.672Z,36.30
2023-03-26T19:39:43.835Z,23.10
2023-03-26T19:42:26.848Z,20.00
2023-03-26T19:45:18.790Z,21.90
2023-03-26T19:47:57.315Z,19.30
2023-03-26T19:50:34.588Z,16.60
2023-03-26T19:53:16.827Z,18.70
2023-03-26T19:56:05.250Z,24.90
2023-03-26T19:58:35.921Z,22.60
2023-03-26T20:01:05.078Z,23.30
2023-03-26T20:03:42.446Z,20.70
2023-03-26T20:06:13.497Z,22.00
2023-03-26T20:08:41.787Z,25.40
2023-03-26T20:11:33.562Z,23.70
2023-03-26T20:14:02.209Z,22.20
2023-03-26T20:16:35.879Z,20.90
2023-03-26T20:19:04.729Z,25.20
2023-03-26T20:21:34.860Z,21.50
2023-03-26T20:24:11.994Z,26.00
2023-03-26T20:26:39.962Z,26.40
2023-03-26T20:29:08.031Z,19.80
2023-03-26T20:31:36.324Z,20.20
2023-03-26T20:34:10.231Z,21.70
2023-03-26T20:36:38.426Z,16.70
2023-03-26T20:39:08.194Z,13.50
2023-03-26T20:41:43.643Z,14.20
2023-03-26T20:44:17.858Z,13.80
2023-03-26T20:46:48.411Z,11.00
2023-03-26T20:49:18.317Z,12.20
2023-03-26T20:51:46.914Z,10.30
2023-03-26T20:54:21.698Z,11.30
2023-03-26T20:56:50.643Z,11.80
2023-03-26T20:59:22.273Z,19.50
2023-03-26T21:01:51.734Z,22.30
2023-03-26T21:04:21.463Z,10.40
2023-03-26T21:06:49.523Z,15.80
2023-03-26T21:09:23.926Z,8.90
2023-03-26T21:12:30.175Z,12.90
2023-03-26T21:14:58.981Z,14.50
2023-03-26T21:17:28.454Z,12.50
2023-03-26T21:20:01.405Z,8.70
2023-03-26T21:22:46.218Z,11.30
2023-03-26T21:25:35.734Z,8.70
2023-03-26T21:28:39.415Z,14.00
2023-03-26T21:31:22.749Z,9.10
2023-03-26T21:33:52.059Z,7.50
2023-03-26T21:36:20.694Z,6.90
2023-03-26T21:38:50.727Z,7.80
2023-03-26T21:41:36.539Z,7.00
2023-03-26T21:44:04.530Z,7.90
2023-03-26T21:46:33.512Z,13.60
2023-03-26T21:49:02.512Z,8.50
2023-03-26T21:51:32.058Z,7.50
2023-03-26T21:54:00.596Z,8.90
2023-03-26T21:56:46.690Z,9.00
2023-03-26T21:59:28.988Z,10.00
2023-03-26T22:02:08.037Z,12.30
2023-03-26T22:04:47.641Z,9.20
2023-03-26T22:07:54.350Z,9.30
2023-03-26T22:10:23.358Z,8.10
2023-03-26T22:12:51.464Z,8.10
2023-03-26T22:15:20.144Z,7.30
2023-03-26T22:17:55.955Z,9.30
2023-03-26T22:20:25.393Z,8.90
2023-03-26T22:22:55.461Z,7.40
2023-03-26T22:25:24.260Z,7.90
2023-03-26T22:27:52.874Z,9.00
2023-03-26T22:30:21.320Z,8.00
2023-03-26T22:32:50.491Z,7.60
2023-03-26T22:35:18.680Z,9.20
2023-03-26T22:37:47.680Z,9.00
2023-03-26T22:40:16.370Z,7.60
2023-03-26T22:42:45.151Z,8.90
2023-03-26T22:45:13.740Z,7.90
2023-03-26T22:47:41.820Z,10.10
2023-03-26T22:50:10.901Z,8.70
2023-03-26T22:52:40.822Z,8.80
2023-03-26T22:55:11.189Z,8.70
2023-03-26T22:57:39.972Z,7.90
2023-03-26T23:00:20.024Z,11.10
2023-03-26T23:02:48.093Z,8.70
2023-03-26T23:05:19.505Z,10.60
2023-03-26T23:07:49.010Z,10.10
2023-03-26T23:10:17.097Z,9.10
2023-03-26T23:12:45.153Z,13.10
2023-03-26T23:15:14.275Z,11.10
2023-03-26T23:17:42.587Z,13.60
2023-03-26T23:20:15.021Z,14.60
2023-03-26T23:22:43.492Z,11.70
2023-03-26T23:25:12.379Z,12.90
2023-03-26T23:27:41.621Z,12.00
2023-03-26T23:30:11.194Z,13.00
2023-03-26T23:32:39.427Z,14.20
2023-03-26T23:35:08.148Z,14.20
2023-03-26T23:37:39.015Z,12.90
2023-03-26T23:40:10.332Z,11.70
2023-03-26T23:42:38.699Z,14.60
2023-03-26T23:45:08.748Z,13.00
2023-03-26T23:47:37.528Z,15.20
2023-03-26T23:50:06.718Z,14.70
2023-03-26T23:52:34.760Z,18.20
2023-03-26T23:55:02.736Z,19.00
2023-03-26T23:57:30.821Z,18.00
2023-03-26T23:59:58.805Z,16.60
